Vremea mâine în Ovidiu - Romania

Vrei sa afli care e starea vremii acum in Constanta - Romania? Dorim sa iti furnizam starea vremii pentru Constanta - Romania. Starea vremii Constanta - Romania pentru astazi.

Vremea mâine în Ovidiu

Temperatura minimă:
13 °C

Temperatura maximă:
17.6 °C

Mâine va fi: Patchy rain nearby
Precipitații: 87 %
Umiditate: 84%
Viteza maximă vânt mâine:
24.1 km/h

Evoluția vremii in Ovidiu pe ore mâine

Ora: 19:00
Temperatura: °C
Sansa de precipitatii: %
Ora Descriere Temp Se simte Precipitatii Umiditate Vant
00:00Senin13.2°13.2°0%90%WSW 5.8 KM/H
01:00Senin13.2°13.4°0%89%W 5 KM/H
02:00Senin13.2°13.6°0%88%W 4 KM/H
03:00Senin13.1°13.1°0%87%WSW 2.9 KM/H
04:00Senin13.1°13.1°0%87%WSW 1.4 KM/H
05:00Senin13°13°0%87%SSE 2.5 KM/H
06:00Senin13°12.7°0%88%S 7.2 KM/H
07:00Senin13.6°13.1°0%88%S 9 KM/H
08:00Senin14.6°14.2°0%85%S 9.7 KM/H
09:00Senin15.7°15.7°0%81%SSE 11.5 KM/H
10:00Senin16.6°16.6°0%79%SSE 14 KM/H
11:00Senin17.2°17.2°0%77%SSE 17.3 KM/H
12:00Senin17.5°17.5°0%77%SSE 20.5 KM/H
13:00Patchy rain nearby17.6°17.6°68%77%SSE 23 KM/H
14:00Patchy rain nearby17.5°17.5°78%77%SSE 23.8 KM/H
15:0017.3°17.4°0%78%SSE 24.1 KM/H
16:0017.1°17.1°0%78%SSE 23.8 KM/H
17:00Patchy rain nearby16.7°16.7°100%80%SSE 23 KM/H
18:00Patchy rain nearby16.2°16.2°85%82%SSE 22 KM/H
19:00Patchy rain nearby15.2°15.2°78%85%SSE 22 KM/H
20:00Patchy rain nearby14.3°12.8°87%89%SSE 19.8 KM/H
21:0013.9°12.4°0%90%SSE 18.7 KM/H
22:00Senin13.5°11.8°0%92%SSE 19.1 KM/H
23:00Patchy rain nearby13.3°11.6°100%92%SSE 19.4 KM/H




tutorials